Terminal Aerodrome Forecast
Issued by NWS Grand Forks, ND

Home | Current Version | Previous Version | Text Only | Print | Product List | Glossary On
Versions: 1 2 3 4 5 6 7 8 9 10 11 12 13 14 15 16 17 18 19 20 21 22 23 24
690
FTUS43 KFGF 292335
TAFGFK
TAF
KGFK 292335Z 3000/3024 17010KT P6SM FEW200
     FM301100 18011KT P6SM BKN090
     FM301300 18011KT P6SM SCT090
     FM302300 15007KT P6SM SCT250=

USA.gov is the U.S. government's official web portal to all federal, state and local government web resources and services.